Time;durP1;ratioP1;P1;durP2;ratioP2;P2;SDS_P1;SDS_P2;PMS_P1;PMS_P2;Temp;Humidity;BMP_temperature;BMP_pressure;BME280_temperature;BME280_humidity;BME280_pressure;Samples;Min_cycle;Max_cycle;Signal;HPM_P1;HPM_P2
2023/05/28 00:01:15;;;;;;;5.05;1.67;;;;;;;;;;4998845;28;20077;-85
2023/05/28 00:03:41;;;;;;;0.65;0.38;;;;;;;;;;4998529;28;20490;-85
2023/05/28 00:06:07;;;;;;;0.20;0.10;;;;;;;;;;4998488;28;20494;-86
2023/05/28 00:08:33;;;;;;;0.20;0.20;;;;;;;;;;5001840;28;20045;-84
2023/05/28 00:10:59;;;;;;;0.35;0.32;;;;;;;;;;5001486;28;20129;-84
2023/05/28 00:13:29;;;;;;;0.20;0.10;;;;;;;;;;4983029;28;20076;-83
2023/05/28 00:15:55;;;;;;;0.20;0.10;;;;;;;;;;5002149;28;20040;-83
2023/05/28 00:18:23;;;;;;;0.20;0.10;;;;;;;;;;4979496;23;20042;-84
2023/05/28 00:20:49;;;;;;;0.20;0.10;;;;;;;;;;4956960;28;20089;-84
2023/05/28 00:23:16;;;;;;;0.20;0.10;;;;;;;;;;4958779;28;20034;-84
2023/05/28 00:25:42;;;;;;;0.20;0.10;;;;;;;;;;4960580;28;20045;-85
2023/05/28 00:28:08;;;;;;;0.20;0.10;;;;;;;;;;4952801;28;20038;-85
2023/05/28 00:30:34;;;;;;;0.20;0.10;;;;;;;;;;4946834;28;20134;-83
2023/05/28 00:33:00;;;;;;;0.20;0.00;;;;;;;;;;4961083;28;20116;-84
2023/05/28 00:35:26;;;;;;;0.20;0.10;;;;;;;;;;4961590;28;20081;-84
2023/05/28 00:37:52;;;;;;;0.20;0.10;;;;;;;;;;4946050;28;20049;-83
2023/05/28 00:40:19;;;;;;;0.20;0.00;;;;;;;;;;4946575;28;20050;-83
2023/05/28 00:42:45;;;;;;;0.20;0.10;;;;;;;;;;4954846;28;20566;-81
2023/05/28 00:45:11;;;;;;;0.43;0.32;;;;;;;;;;4959733;28;20039;-83
2023/05/28 00:47:41;;;;;;;0.20;0.10;;;;;;;;;;4955970;28;20129;-85
2023/05/28 00:50:08;;;;;;;0.20;0.20;;;;;;;;;;4955355;28;20077;-85
2023/05/28 00:52:34;;;;;;;0.20;0.20;;;;;;;;;;4961309;28;20566;-84
2023/05/28 00:55:00;;;;;;;1.17;0.28;;;;;;;;;;4960662;28;20034;-85
2023/05/28 00:57:26;;;;;;;0.20;0.10;;;;;;;;;;4950345;28;20073;-83
2023/05/28 00:59:55;;;;;;;0.20;0.10;;;;;;;;;;4949223;28;20486;-84
2023/05/28 01:02:21;;;;;;;0.20;0.10;;;;;;;;;;4944359;28;20503;-86
2023/05/28 01:04:47;;;;;;;0.20;0.10;;;;;;;;;;4961972;28;20104;-84
2023/05/28 01:07:13;;;;;;;0.20;0.10;;;;;;;;;;4961490;28;20049;-83
2023/05/28 01:09:39;;;;;;;0.20;0.10;;;;;;;;;;4962547;28;20042;-81
2023/05/28 01:12:06;;;;;;;0.88;0.43;;;;;;;;;;4958923;28;20043;-83
2023/05/28 01:14:32;;;;;;;0.20;0.10;;;;;;;;;;4951018;28;20098;-85
2023/05/28 01:16:58;;;;;;;0.30;0.20;;;;;;;;;;4961042;28;20050;-86
2023/05/28 01:19:27;;;;;;;0.20;0.20;;;;;;;;;;4949936;28;20141;-84
2023/05/28 01:21:56;;;;;;;0.20;0.00;;;;;;;;;;4948967;28;20073;-83
2023/05/28 01:24:23;;;;;;;0.20;0.10;;;;;;;;;;4962552;28;20126;-85
2023/05/28 01:26:50;;;;;;;0.20;0.15;;;;;;;;;;4945215;28;20125;-84
2023/05/28 01:29:17;;;;;;;0.38;0.30;;;;;;;;;;4950498;28;20050;-82
2023/05/28 01:31:43;;;;;;;0.20;0.03;;;;;;;;;;4965838;28;20039;-85
2023/05/28 01:34:10;;;;;;;0.20;0.10;;;;;;;;;;4967408;28;20081;-84
2023/05/28 01:36:41;;;;;;;0.20;0.10;;;;;;;;;;4971050;28;22195;-84
2023/05/28 01:39:08;;;;;;;0.20;0.10;;;;;;;;;;4951615;28;20045;-85
2023/05/28 01:41:35;;;;;;;0.20;0.10;;;;;;;;;;4946434;28;20451;-85
2023/05/28 01:44:01;;;;;;;0.20;0.10;;;;;;;;;;4955559;28;20042;-86
2023/05/28 01:46:28;;;;;;;0.20;0.10;;;;;;;;;;4946412;28;20072;-85
2023/05/28 01:48:54;;;;;;;0.20;0.10;;;;;;;;;;4957561;28;20064;-84
2023/05/28 01:51:24;;;;;;;0.20;0.10;;;;;;;;;;4948674;28;20043;-85
2023/05/28 01:53:50;;;;;;;1.48;0.30;;;;;;;;;;4950389;28;20089;-86
2023/05/28 01:56:16;;;;;;;0.20;0.00;;;;;;;;;;4948694;28;20041;-83
2023/05/28 01:58:42;;;;;;;0.20;0.00;;;;;;;;;;4957377;28;20070;-86
2023/05/28 02:01:12;;;;;;;0.30;0.22;;;;;;;;;;4949851;28;20042;-83
2023/05/28 02:03:38;;;;;;;0.20;0.10;;;;;;;;;;4961655;28;20504;-85
2023/05/28 02:06:04;;;;;;;0.25;0.20;;;;;;;;;;4943191;28;20053;-83
2023/05/28 02:08:30;;;;;;;0.20;0.10;;;;;;;;;;4958778;28;20038;-84
2023/05/28 02:10:56;;;;;;;0.52;0.52;;;;;;;;;;4949102;28;20038;-83
2023/05/28 02:13:22;;;;;;;0.30;0.20;;;;;;;;;;4960553;28;20046;-84
2023/05/28 02:15:49;;;;;;;0.20;0.10;;;;;;;;;;4957191;28;20046;-83
2023/05/28 02:18:15;;;;;;;0.50;0.43;;;;;;;;;;4952184;28;20054;-86
2023/05/28 02:20:42;;;;;;;0.20;0.10;;;;;;;;;;4955745;28;20046;-82
2023/05/28 02:23:08;;;;;;;0.20;0.10;;;;;;;;;;4951722;28;20066;-83
2023/05/28 02:25:34;;;;;;;0.20;0.10;;;;;;;;;;4963643;28;20046;-84
2023/05/28 02:28:00;;;;;;;0.20;0.00;;;;;;;;;;4973972;28;20104;-82
2023/05/28 02:30:26;;;;;;;0.77;0.40;;;;;;;;;;4948892;28;20043;-86
2023/05/28 02:32:54;;;;;;;0.20;0.10;;;;;;;;;;4959509;28;20565;-85
2023/05/28 02:35:21;;;;;;;0.60;0.13;;;;;;;;;;4946454;28;20035;-87
2023/05/28 02:37:47;;;;;;;0.20;0.10;;;;;;;;;;4944260;28;20502;-85
2023/05/28 02:40:13;;;;;;;0.20;0.20;;;;;;;;;;4955027;28;20061;-87
2023/05/28 02:42:39;;;;;;;0.20;0.10;;;;;;;;;;4958502;28;20077;-85
2023/05/28 02:45:06;;;;;;;0.45;0.10;;;;;;;;;;4946210;28;20085;-85
2023/05/28 02:47:32;;;;;;;0.20;0.00;;;;;;;;;;4969476;28;20093;-84
2023/05/28 02:49:58;;;;;;;0.20;0.10;;;;;;;;;;4958954;28;20088;-86
2023/05/28 02:52:26;;;;;;;0.20;0.08;;;;;;;;;;4960456;28;20042;-83
2023/05/28 02:54:52;;;;;;;0.30;0.30;;;;;;;;;;4966781;28;20038;-83
2023/05/28 02:57:19;;;;;;;0.20;0.10;;;;;;;;;;4945337;28;20045;-84
2023/05/28 02:59:45;;;;;;;0.20;0.10;;;;;;;;;;4948123;28;20051;-83
2023/05/28 03:02:11;;;;;;;0.20;0.08;;;;;;;;;;4948621;28;20151;-87
2023/05/28 03:04:37;;;;;;;0.20;0.10;;;;;;;;;;4953068;28;20509;-85
2023/05/28 03:07:03;;;;;;;0.20;0.10;;;;;;;;;;4946472;28;20113;-84
2023/05/28 03:09:29;;;;;;;0.47;0.20;;;;;;;;;;4954195;28;20046;-85
2023/05/28 03:11:55;;;;;;;0.20;0.10;;;;;;;;;;4959498;28;20066;-86
2023/05/28 03:14:21;;;;;;;0.20;0.10;;;;;;;;;;4956665;28;20128;-83
2023/05/28 03:16:47;;;;;;;0.20;0.00;;;;;;;;;;4953545;28;20041;-85
2023/05/28 03:19:13;;;;;;;0.20;0.10;;;;;;;;;;4958409;28;20042;-83
2023/05/28 03:21:40;;;;;;;0.20;0.10;;;;;;;;;;4960664;28;20049;-85
2023/05/28 03:24:06;;;;;;;0.20;0.13;;;;;;;;;;4950045;28;20046;-83
2023/05/28 03:26:32;;;;;;;0.57;0.22;;;;;;;;;;4951496;28;20041;-83
2023/05/28 03:28:58;;;;;;;0.20;0.10;;;;;;;;;;4945975;28;20116;-84
2023/05/28 03:31:28;;;;;;;0.20;0.13;;;;;;;;;;4956707;28;20053;-85
2023/05/28 03:33:54;;;;;;;0.20;0.10;;;;;;;;;;4956932;28;21080;-83
2023/05/28 03:36:20;;;;;;;0.20;0.10;;;;;;;;;;4958377;28;20082;-83
2023/05/28 03:38:46;;;;;;;1.27;0.30;;;;;;;;;;4959894;28;20412;-83
2023/05/28 03:41:12;;;;;;;0.20;0.10;;;;;;;;;;4962980;28;20038;-84
2023/05/28 03:43:38;;;;;;;0.20;0.10;;;;;;;;;;4956286;28;20979;-82
2023/05/28 03:46:04;;;;;;;0.20;0.15;;;;;;;;;;4939804;28;20057;-83
2023/05/28 03:48:30;;;;;;;0.20;0.10;;;;;;;;;;4957714;28;20043;-84
2023/05/28 03:50:56;;;;;;;0.20;0.20;;;;;;;;;;4947554;28;20047;-85
2023/05/28 03:53:22;;;;;;;0.35;0.17;;;;;;;;;;4960860;28;20184;-82
2023/05/28 03:55:51;;;;;;;0.57;0.40;;;;;;;;;;4955762;28;20058;-85
2023/05/28 03:58:17;;;;;;;0.20;0.10;;;;;;;;;;4956296;28;20050;-84
2023/05/28 04:00:43;;;;;;;0.20;0.10;;;;;;;;;;4959196;28;20042;-85
2023/05/28 04:03:09;;;;;;;0.20;0.20;;;;;;;;;;4952226;28;20042;-83
2023/05/28 04:05:35;;;;;;;0.20;0.10;;;;;;;;;;4950752;28;20164;-86
2023/05/28 04:08:02;;;;;;;0.20;0.20;;;;;;;;;;4952600;28;20109;-84
2023/05/28 04:10:28;;;;;;;0.20;0.10;;;;;;;;;;4959758;28;20055;-83
2023/05/28 04:12:56;;;;;;;0.20;0.10;;;;;;;;;;4960652;28;20042;-86
2023/05/28 04:15:22;;;;;;;0.20;0.20;;;;;;;;;;4953374;28;20549;-83
2023/05/28 04:17:48;;;;;;;0.20;0.10;;;;;;;;;;4960340;28;20039;-83
2023/05/28 04:20:14;;;;;;;0.20;0.10;;;;;;;;;;4952170;28;20046;-84
2023/05/28 04:22:40;;;;;;;0.20;0.10;;;;;;;;;;4961299;28;20410;-88
2023/05/28 04:25:06;;;;;;;0.20;0.10;;;;;;;;;;4948997;28;20049;-85
2023/05/28 04:27:32;;;;;;;0.20;0.20;;;;;;;;;;4957073;28;20048;-84
2023/05/28 04:29:58;;;;;;;0.30;0.10;;;;;;;;;;4965633;28;20041;-84
2023/05/28 04:32:24;;;;;;;0.20;0.10;;;;;;;;;;4946963;28;20042;-82
2023/05/28 04:34:54;;;;;;;2.05;1.08;;;;;;;;;;4946000;28;20294;-84
2023/05/28 04:37:21;;;;;;;0.20;0.20;;;;;;;;;;4980502;23;20044;-84
2023/05/28 04:39:48;;;;;;;0.50;0.20;;;;;;;;;;5008203;28;20527;-84
2023/05/28 04:42:16;;;;;;;0.20;0.10;;;;;;;;;;4999960;28;20045;-83
2023/05/28 04:44:43;;;;;;;1.30;0.20;;;;;;;;;;4999483;28;20029;-83
2023/05/28 04:47:09;;;;;;;0.20;0.10;;;;;;;;;;5002538;28;20038;-84
2023/05/28 04:49:35;;;;;;;0.20;0.03;;;;;;;;;;4987380;28;20033;-85
2023/05/28 04:52:01;;;;;;;0.20;0.10;;;;;;;;;;4985850;28;20041;-84
2023/05/28 04:54:27;;;;;;;0.20;0.10;;;;;;;;;;4985487;28;20039;-85
2023/05/28 04:56:53;;;;;;;0.20;0.15;;;;;;;;;;4990244;28;20125;-84
2023/05/28 04:59:28;;;;;;;0.20;0.10;;;;;;;;;;4989866;28;20549;-83
2023/05/28 05:01:54;;;;;;;0.20;0.10;;;;;;;;;;4993212;28;20112;-82
2023/05/28 05:04:20;;;;;;;0.20;0.00;;;;;;;;;;4978108;28;20494;-85
2023/05/28 05:06:46;;;;;;;0.20;0.10;;;;;;;;;;4982714;28;20063;-83
2023/05/28 05:09:12;;;;;;;0.20;0.10;;;;;;;;;;4992352;28;20049;-83
2023/05/28 05:11:39;;;;;;;0.20;0.10;;;;;;;;;;4989255;28;20035;-87
2023/05/28 05:14:05;;;;;;;0.20;0.10;;;;;;;;;;5005764;28;20095;-82
2023/05/28 05:16:31;;;;;;;0.20;0.10;;;;;;;;;;4988757;28;20745;-84
2023/05/28 05:18:57;;;;;;;0.30;0.25;;;;;;;;;;4974419;28;20069;-83
2023/05/28 05:21:23;;;;;;;0.20;0.10;;;;;;;;;;4978714;28;21566;-85
2023/05/28 05:23:49;;;;;;;0.20;0.10;;;;;;;;;;4975816;28;20199;-85
2023/05/28 05:26:18;;;;;;;0.20;0.10;;;;;;;;;;4986953;28;20053;-82
2023/05/28 05:28:45;;;;;;;0.20;0.10;;;;;;;;;;4995060;28;20084;-84
2023/05/28 05:31:12;;;;;;;0.20;0.10;;;;;;;;;;5001172;28;20077;-84
2023/05/28 05:33:38;;;;;;;0.20;0.10;;;;;;;;;;4984740;28;20107;-84
2023/05/28 05:36:04;;;;;;;0.20;0.10;;;;;;;;;;4985529;28;20038;-84
2023/05/28 05:38:31;;;;;;;0.20;0.10;;;;;;;;;;4983859;28;20130;-84
2023/05/28 05:40:57;;;;;;;0.20;0.10;;;;;;;;;;5002228;28;20701;-84
2023/05/28 05:43:25;;;;;;;0.20;0.10;;;;;;;;;;4984760;28;20577;-82
2023/05/28 05:45:51;;;;;;;1.65;0.43;;;;;;;;;;4983931;28;20105;-83
2023/05/28 05:48:17;;;;;;;0.20;0.10;;;;;;;;;;4983609;28;20060;-86
2023/05/28 05:50:58;;;;;;;0.20;0.10;;;;;;;;;;4984155;28;20406;-83
2023/05/28 05:53:24;;;;;;;0.20;0.10;;;;;;;;;;4987377;28;20041;-85
2023/05/28 05:55:50;;;;;;;0.20;0.05;;;;;;;;;;4984853;28;20041;-85
2023/05/28 05:58:17;;;;;;;0.25;0.22;;;;;;;;;;4985085;28;20049;-84
2023/05/28 06:00:43;;;;;;;0.20;0.10;;;;;;;;;;4985671;28;20060;-84
2023/05/28 06:03:09;;;;;;;0.20;0.10;;;;;;;;;;4977805;28;20045;-84
2023/05/28 06:05:36;;;;;;;0.20;0.10;;;;;;;;;;4989339;28;20324;-85
2023/05/28 06:08:02;;;;;;;0.20;0.20;;;;;;;;;;4970912;28;20041;-84
2023/05/28 06:10:29;;;;;;;0.52;0.32;;;;;;;;;;4986602;28;20562;-84
2023/05/28 06:12:55;;;;;;;0.20;0.10;;;;;;;;;;4982321;28;20529;-86
2023/05/28 06:15:21;;;;;;;0.35;0.30;;;;;;;;;;4984848;28;20048;-84
2023/05/28 06:17:47;;;;;;;0.30;0.30;;;;;;;;;;4969395;28;20041;-85
2023/05/28 06:20:13;;;;;;;0.20;0.10;;;;;;;;;;4981838;28;20049;-80
2023/05/28 06:22:40;;;;;;;0.20;0.10;;;;;;;;;;4994719;28;20041;-83
2023/05/28 06:25:08;;;;;;;0.20;0.10;;;;;;;;;;5000379;28;20046;-85
2023/05/28 06:27:35;;;;;;;0.25;0.17;;;;;;;;;;4984103;28;20044;-83
2023/05/28 06:30:02;;;;;;;0.20;0.10;;;;;;;;;;4979262;28;20052;-86
2023/05/28 06:32:28;;;;;;;0.65;0.65;;;;;;;;;;4978324;28;20037;-85
2023/05/28 06:34:54;;;;;;;0.20;0.10;;;;;;;;;;4994365;28;20071;-82
2023/05/28 06:37:21;;;;;;;0.20;0.10;;;;;;;;;;4980752;28;20045;-83
2023/05/28 06:39:47;;;;;;;0.20;0.10;;;;;;;;;;4979645;28;20060;-83
2023/05/28 06:42:13;;;;;;;0.30;0.20;;;;;;;;;;4997476;28;20041;-89
2023/05/28 06:44:48;;;;;;;0.20;0.10;;;;;;;;;;5003102;28;20110;-83
2023/05/28 06:47:14;;;;;;;2.83;0.85;;;;;;;;;;4983573;28;20037;-84
2023/05/28 06:49:40;;;;;;;0.20;0.20;;;;;;;;;;4985756;28;20034;-84
2023/05/28 06:52:06;;;;;;;0.20;0.10;;;;;;;;;;4978557;28;20045;-87
2023/05/28 06:54:32;;;;;;;0.20;0.20;;;;;;;;;;4979090;28;21026;-84
2023/05/28 06:56:59;;;;;;;1.05;0.45;;;;;;;;;;4980680;28;20109;-85
2023/05/28 06:59:25;;;;;;;0.20;0.10;;;;;;;;;;4981841;28;20091;-84
2023/05/28 07:01:51;;;;;;;0.20;0.10;;;;;;;;;;4983784;28;20397;-83
2023/05/28 07:04:17;;;;;;;0.20;0.10;;;;;;;;;;4981903;28;20030;-81
2023/05/28 07:06:44;;;;;;;0.20;0.10;;;;;;;;;;4978847;28;20037;-83
2023/05/28 07:09:10;;;;;;;0.30;0.25;;;;;;;;;;4983833;28;20038;-84
2023/05/28 07:11:36;;;;;;;0.20;0.10;;;;;;;;;;4997671;28;20042;-83
2023/05/28 07:14:03;;;;;;;0.20;0.10;;;;;;;;;;4987118;28;20095;-82
2023/05/28 07:16:29;;;;;;;0.20;0.10;;;;;;;;;;4982244;28;20038;-83
2023/05/28 07:19:01;;;;;;;0.20;0.10;;;;;;;;;;4999498;28;20630;-82
2023/05/28 07:21:27;;;;;;;0.32;0.30;;;;;;;;;;5002288;28;20037;-83
2023/05/28 07:23:53;;;;;;;0.20;0.10;;;;;;;;;;4982200;28;20104;-81
2023/05/28 07:26:19;;;;;;;0.20;0.10;;;;;;;;;;4983523;28;20061;-82
2023/05/28 07:28:48;;;;;;;0.20;0.10;;;;;;;;;;4990574;28;20607;-84
2023/05/28 07:31:17;;;;;;;0.20;0.10;;;;;;;;;;5001043;28;20502;-83
2023/05/28 07:33:53;;;;;;;;;;;;;;;;;;;;;
2023/05/28 07:39:14;;;;;;;0.20;0.10;;;;;;;;;;5007652;28;20042;-82
2023/05/28 07:41:46;;;;;;;0.30;0.30;;;;;;;;;;5000135;28;20750;-85
2023/05/28 07:44:17;;;;;;;0.20;0.10;;;;;;;;;;4988581;28;20096;-84
2023/05/28 07:46:46;;;;;;;0.20;0.10;;;;;;;;;;5001859;28;20046;-85
2023/05/28 07:49:16;;;;;;;0.20;0.10;;;;;;;;;;4999531;28;20052;-88
2023/05/28 07:51:45;;;;;;;0.20;0.10;;;;;;;;;;5004756;28;20403;-81
2023/05/28 07:54:17;;;;;;;0.20;0.10;;;;;;;;;;4998589;28;20040;-83
2023/05/28 07:56:43;;;;;;;0.20;0.10;;;;;;;;;;4996094;28;20521;-83
2023/05/28 07:59:22;;;;;;;;;;;;;;;;;;;;;
2023/05/28 08:01:49;;;;;;;0.43;0.43;;;;;;;;;;5009135;28;20050;-85
2023/05/28 08:04:15;;;;;;;0.20;0.10;;;;;;;;;;4998092;28;20064;-82
2023/05/28 08:06:43;;;;;;;0.20;0.10;;;;;;;;;;4986924;28;20041;-85
2023/05/28 08:09:15;;;;;;;0.25;0.13;;;;;;;;;;4996559;28;20109;-86
2023/05/28 08:11:41;;;;;;;0.20;0.10;;;;;;;;;;4982995;28;20103;-82
2023/05/28 08:14:10;;;;;;;0.30;0.30;;;;;;;;;;4984240;28;20061;-83
2023/05/28 08:16:39;;;;;;;0.20;0.20;;;;;;;;;;4990939;28;20080;-81
2023/05/28 08:19:05;;;;;;;0.43;0.10;;;;;;;;;;4986371;28;20140;-84
2023/05/28 08:21:33;;;;;;;0.20;0.10;;;;;;;;;;4981382;28;20071;-84
2023/05/28 08:24:06;;;;;;;0.95;0.50;;;;;;;;;;4997354;28;20037;-84
2023/05/28 08:26:32;;;;;;;0.20;0.10;;;;;;;;;;4986575;28;20046;-82
2023/05/28 08:28:58;;;;;;;0.38;0.30;;;;;;;;;;4986064;28;20578;-83
2023/05/28 08:31:26;;;;;;;0.20;0.10;;;;;;;;;;4981989;28;20041;-86
2023/05/28 08:33:54;;;;;;;0.20;0.10;;;;;;;;;;4983050;28;20664;-85
2023/05/28 08:36:23;;;;;;;0.20;0.10;;;;;;;;;;4996861;28;20101;-83
2023/05/28 08:38:49;;;;;;;0.20;0.10;;;;;;;;;;4994924;28;20897;-83
2023/05/28 08:41:15;;;;;;;0.30;0.30;;;;;;;;;;4997754;28;20053;-84
2023/05/28 08:43:42;;;;;;;0.20;0.10;;;;;;;;;;5002606;28;20037;-83
2023/05/28 08:46:17;;;;;;;0.20;0.10;;;;;;;;;;4999067;28;20124;-84
2023/05/28 08:48:43;;;;;;;0.20;0.10;;;;;;;;;;4985864;28;20065;-83
2023/05/28 08:51:19;;;;;;;0.20;0.10;;;;;;;;;;4984636;28;20045;-86
2023/05/28 08:53:50;;;;;;;1.08;0.35;;;;;;;;;;5005029;28;20053;-81
2023/05/28 08:56:20;;;;;;;0.20;0.10;;;;;;;;;;4987688;28;20033;-84
2023/05/28 08:58:49;;;;;;;0.20;0.10;;;;;;;;;;5003477;28;20102;-84
2023/05/28 09:01:15;;;;;;;0.43;0.20;;;;;;;;;;5013999;28;20037;-82
2023/05/28 09:03:48;;;;;;;0.77;0.52;;;;;;;;;;5002682;28;20041;-86
2023/05/28 09:06:14;;;;;;;2.08;0.30;;;;;;;;;;4988191;28;20064;-83
2023/05/28 09:08:40;;;;;;;0.20;0.17;;;;;;;;;;4997561;28;20051;-85
2023/05/28 09:11:10;;;;;;;0.20;0.10;;;;;;;;;;5002697;28;20069;-82
2023/05/28 09:13:52;;;;;;;0.25;0.20;;;;;;;;;;4989854;28;20045;-83
2023/05/28 09:16:43;;;;;;;0.20;0.10;;;;;;;;;;4983903;28;20037;-84
2023/05/28 09:19:15;;;;;;;0.22;0.17;;;;;;;;;;5001149;28;20072;-85
2023/05/28 09:21:52;;;;;;;0.20;0.20;;;;;;;;;;5004753;28;20663;-85
2023/05/28 09:24:18;;;;;;;0.63;0.30;;;;;;;;;;5006136;28;20047;-83
2023/05/28 09:26:48;;;;;;;0.20;0.10;;;;;;;;;;5005260;28;20136;-84
2023/05/28 09:29:14;;;;;;;0.20;0.10;;;;;;;;;;4985708;28;20044;-85
2023/05/28 09:32:00;;;;;;;0.20;0.10;;;;;;;;;;4999157;28;20088;-83
2023/05/28 09:34:27;;;;;;;0.20;0.10;;;;;;;;;;5003625;28;20128;-84
2023/05/28 09:37:01;;;;;;;0.20;0.10;;;;;;;;;;4983981;28;20038;-86
2023/05/28 09:39:27;;;;;;;0.22;0.22;;;;;;;;;;4982140;28;20124;-81
2023/05/28 09:42:03;;;;;;;0.20;0.10;;;;;;;;;;4985404;28;20040;-85
2023/05/28 09:44:33;;;;;;;0.20;0.08;;;;;;;;;;5016194;28;20591;-82
2023/05/28 09:46:59;;;;;;;0.20;0.10;;;;;;;;;;4997101;28;20037;-84
2023/05/28 09:49:29;;;;;;;0.20;0.10;;;;;;;;;;4983070;28;20124;-82
2023/05/28 09:51:57;;;;;;;0.20;0.10;;;;;;;;;;4989017;28;20041;-85
2023/05/28 09:54:28;;;;;;;0.20;0.10;;;;;;;;;;4993714;28;20034;-87
2023/05/28 09:56:55;;;;;;;0.20;0.10;;;;;;;;;;4999170;28;20037;-86
2023/05/28 09:59:23;;;;;;;0.20;0.10;;;;;;;;;;4994778;28;20155;-83
2023/05/28 10:02:12;;;;;;;0.20;0.10;;;;;;;;;;4996436;28;20410;-82
2023/05/28 10:04:39;;;;;;;0.30;0.20;;;;;;;;;;4991593;28;20080;-83
2023/05/28 10:07:05;;;;;;;0.73;0.20;;;;;;;;;;4974313;28;20095;-83
2023/05/28 10:09:32;;;;;;;0.20;0.10;;;;;;;;;;4985986;28;20057;-83
2023/05/28 10:12:32;;;;;;;0.20;0.10;;;;;;;;;;4981965;28;20042;-86
2023/05/28 10:15:01;;;;;;;0.30;0.30;;;;;;;;;;4984917;28;20089;-85
2023/05/28 10:17:35;;;;;;;0.20;0.10;;;;;;;;;;4980644;28;20050;-86
2023/05/28 10:20:04;;;;;;;0.20;0.10;;;;;;;;;;4980885;28;20060;-83
2023/05/28 10:22:34;;;;;;;0.20;0.10;;;;;;;;;;5002215;28;20510;-86
2023/05/28 10:25:18;;;;;;;0.32;0.20;;;;;;;;;;4994649;28;20104;-86
2023/05/28 10:27:52;;;;;;;0.20;0.10;;;;;;;;;;4997216;28;20489;-84
2023/05/28 10:30:37;;;;;;;0.55;0.22;;;;;;;;;;5002842;28;20038;-82
2023/05/28 10:33:09;;;;;;;0.20;0.10;;;;;;;;;;5001058;28;20183;-87
2023/05/28 10:35:36;;;;;;;0.20;0.10;;;;;;;;;;4996963;28;20049;-83
2023/05/28 10:38:05;;;;;;;0.50;0.30;;;;;;;;;;4993033;28;20053;-83
2023/05/28 10:40:35;;;;;;;0.20;0.10;;;;;;;;;;4997491;28;20120;-84
2023/05/28 10:43:07;;;;;;;0.20;0.10;;;;;;;;;;4994542;28;20053;-85
2023/05/28 10:45:37;;;;;;;0.32;0.32;;;;;;;;;;4982699;28;20052;-83
2023/05/28 10:48:05;;;;;;;0.20;0.15;;;;;;;;;;4996284;28;20474;-85
2023/05/28 10:50:32;;;;;;;0.90;0.50;;;;;;;;;;4983301;28;20049;-83
2023/05/28 10:53:12;;;;;;;0.20;0.10;;;;;;;;;;4994099;28;20219;-84
2023/05/28 10:55:54;;;;;;;0.30;0.30;;;;;;;;;;4979511;28;20091;-84
2023/05/28 10:58:27;;;;;;;0.50;0.40;;;;;;;;;;4997040;28;20045;-85
2023/05/28 11:00:53;;;;;;;0.20;0.10;;;;;;;;;;4983195;28;20049;-82
2023/05/28 11:03:39;;;;;;;0.55;0.35;;;;;;;;;;4981267;28;20069;-89
2023/05/28 11:06:07;;;;;;;0.20;0.13;;;;;;;;;;4979938;28;20048;-83
2023/05/28 11:08:33;;;;;;;0.28;0.25;;;;;;;;;;4995143;28;20053;-85
2023/05/28 11:11:02;;;;;;;0.20;0.10;;;;;;;;;;4981171;28;20045;-87
2023/05/28 11:13:31;;;;;;;0.20;0.10;;;;;;;;;;5000651;28;20038;-80
2023/05/28 11:16:05;;;;;;;0.20;0.10;;;;;;;;;;4981517;28;20081;-83
2023/05/28 11:18:31;;;;;;;0.20;0.05;;;;;;;;;;4994691;28;20166;-81
2023/05/28 11:21:13;;;;;;;0.20;0.10;;;;;;;;;;4980100;28;20041;-86
2023/05/28 11:24:01;;;;;;;0.20;0.10;;;;;;;;;;4979932;28;20752;-84
2023/05/28 11:26:30;;;;;;;0.20;0.10;;;;;;;;;;4996062;28;21266;-84
2023/05/28 11:29:03;;;;;;;0.20;0.10;;;;;;;;;;4979228;28;20045;-84
2023/05/28 11:31:42;;;;;;;0.30;0.30;;;;;;;;;;4984110;28;20076;-86
2023/05/28 11:34:25;;;;;;;0.20;0.10;;;;;;;;;;4982556;28;20449;-85
2023/05/28 11:36:57;;;;;;;0.20;0.10;;;;;;;;;;5003180;28;20037;-86
2023/05/28 11:39:26;;;;;;;0.20;0.10;;;;;;;;;;4993397;28;20127;-81
2023/05/28 11:41:52;;;;;;;0.82;0.32;;;;;;;;;;4982932;28;20073;-84
2023/05/28 11:44:19;;;;;;;0.20;0.03;;;;;;;;;;4982550;28;20045;-82
2023/05/28 11:46:48;;;;;;;0.20;0.17;;;;;;;;;;4995513;28;20039;-83
2023/05/28 11:49:17;;;;;;;0.20;0.15;;;;;;;;;;4977759;28;20796;-87
2023/05/28 11:51:54;;;;;;;0.28;0.17;;;;;;;;;;4987922;28;20041;-85
2023/05/28 11:54:20;;;;;;;0.20;0.10;;;;;;;;;;4984382;28;20048;-84
2023/05/28 11:56:56;;;;;;;0.20;0.10;;;;;;;;;;4995276;28;20053;-84
2023/05/28 11:59:25;;;;;;;0.65;0.32;;;;;;;;;;4978670;28;20047;-82
2023/05/28 12:01:55;;;;;;;1.33;0.20;;;;;;;;;;4992893;28;20045;-83
2023/05/28 12:04:24;;;;;;;0.20;0.10;;;;;;;;;;4972072;28;20041;-83
2023/05/28 12:06:54;;;;;;;0.20;0.10;;;;;;;;;;5011038;28;20045;-83
2023/05/28 12:09:29;;;;;;;0.32;0.30;;;;;;;;;;4989530;28;20053;-85
2023/05/28 12:12:23;;;;;;;0.20;0.10;;;;;;;;;;4983006;28;20042;-82
2023/05/28 12:14:50;;;;;;;0.38;0.35;;;;;;;;;;4989280;28;20059;-81
2023/05/28 12:17:19;;;;;;;0.20;0.10;;;;;;;;;;4979086;28;20038;-81
2023/05/28 12:19:45;;;;;;;0.20;0.10;;;;;;;;;;4987546;28;20124;-85
2023/05/28 12:22:15;;;;;;;0.20;0.10;;;;;;;;;;4995476;28;20368;-82
2023/05/28 12:24:47;;;;;;;0.20;0.20;;;;;;;;;;4996263;28;20042;-84
2023/05/28 12:27:13;;;;;;;0.40;0.20;;;;;;;;;;4992911;28;20041;-83
2023/05/28 12:29:39;;;;;;;0.20;0.10;;;;;;;;;;4997983;28;20056;-85
2023/05/28 12:32:05;;;;;;;0.20;0.10;;;;;;;;;;4985556;28;20041;-81
2023/05/28 12:34:34;;;;;;;0.20;0.20;;;;;;;;;;4988839;28;20103;-84
2023/05/28 12:37:03;;;;;;;0.20;0.10;;;;;;;;;;4980552;28;20441;-84
2023/05/28 12:39:30;;;;;;;0.20;0.20;;;;;;;;;;4983207;28;20528;-84
2023/05/28 12:41:58;;;;;;;0.20;0.10;;;;;;;;;;4987070;28;20037;-87
2023/05/28 12:44:29;;;;;;;0.20;0.10;;;;;;;;;;4992735;28;20041;-86
2023/05/28 12:47:02;;;;;;;0.20;0.10;;;;;;;;;;4993792;28;20041;-84
2023/05/28 12:49:43;;;;;;;0.22;0.13;;;;;;;;;;5000207;28;20118;-85
2023/05/28 12:52:09;;;;;;;0.20;0.10;;;;;;;;;;4992050;28;20042;-84
2023/05/28 12:54:36;;;;;;;0.75;0.25;;;;;;;;;;4988688;28;20141;-84
2023/05/28 12:57:02;;;;;;;0.30;0.22;;;;;;;;;;4977265;28;20052;-83
2023/05/28 12:59:29;;;;;;;0.20;0.10;;;;;;;;;;4995656;28;20045;-83
2023/05/28 13:01:55;;;;;;;0.20;0.13;;;;;;;;;;4982798;28;20154;-85
2023/05/28 13:04:22;;;;;;;0.20;0.00;;;;;;;;;;4984646;28;20088;-82
2023/05/28 13:06:51;;;;;;;0.22;0.20;;;;;;;;;;4989211;28;20112;-88
2023/05/28 13:09:17;;;;;;;0.45;0.20;;;;;;;;;;4991208;28;20103;-82
2023/05/28 13:11:44;;;;;;;0.20;0.10;;;;;;;;;;4988416;28;20533;-85
2023/05/28 13:14:10;;;;;;;0.52;0.17;;;;;;;;;;4981233;28;20133;-84
2023/05/28 13:16:36;;;;;;;0.20;0.10;;;;;;;;;;4996492;28;20107;-84
2023/05/28 13:19:03;;;;;;;0.20;0.10;;;;;;;;;;4986095;28;20461;-81
2023/05/28 13:21:34;;;;;;;0.20;0.10;;;;;;;;;;5002920;28;20446;-85
2023/05/28 13:24:05;;;;;;;0.20;0.10;;;;;;;;;;4984004;28;20137;-84
2023/05/28 13:26:33;;;;;;;0.20;0.10;;;;;;;;;;4985522;28;20493;-80
2023/05/28 13:28:59;;;;;;;0.20;0.03;;;;;;;;;;4985833;28;20617;-85
2023/05/28 13:31:25;;;;;;;0.20;0.10;;;;;;;;;;4984912;28;20048;-84
2023/05/28 13:33:51;;;;;;;0.20;0.10;;;;;;;;;;5003746;28;20410;-83
2023/05/28 13:36:26;;;;;;;0.20;0.10;;;;;;;;;;4987250;28;20745;-82
2023/05/28 13:38:53;;;;;;;0.25;0.10;;;;;;;;;;5000339;28;20121;-84
2023/05/28 13:41:20;;;;;;;0.20;0.15;;;;;;;;;;4990843;28;20409;-84
2023/05/28 13:43:46;;;;;;;0.20;0.20;;;;;;;;;;4984959;28;20045;-83
2023/05/28 13:46:13;;;;;;;0.20;0.10;;;;;;;;;;4989500;28;20037;-83
2023/05/28 13:48:39;;;;;;;0.20;0.20;;;;;;;;;;4987390;28;20092;-86
2023/05/28 13:51:05;;;;;;;0.38;0.38;;;;;;;;;;4983691;28;20058;-83
2023/05/28 13:53:35;;;;;;;1.48;0.63;;;;;;;;;;4991085;28;20045;-87
2023/05/28 13:56:01;;;;;;;0.20;0.10;;;;;;;;;;4984963;28;20033;-82
2023/05/28 13:58:27;;;;;;;0.20;0.10;;;;;;;;;;4989381;28;20110;-82
2023/05/28 14:00:53;;;;;;;0.20;0.10;;;;;;;;;;4986034;28;20480;-83
2023/05/28 14:03:19;;;;;;;0.20;0.10;;;;;;;;;;4990754;28;20088;-83
2023/05/28 14:05:45;;;;;;;0.68;0.52;;;;;;;;;;4984961;28;20049;-81
2023/05/28 14:08:12;;;;;;;0.20;0.15;;;;;;;;;;4999557;28;20091;-84
2023/05/28 14:10:38;;;;;;;0.20;0.10;;;;;;;;;;4999877;28;20037;-89
2023/05/28 14:13:04;;;;;;;0.28;0.28;;;;;;;;;;4995187;28;20041;-83
2023/05/28 14:15:30;;;;;;;0.20;0.10;;;;;;;;;;4998673;28;20045;-85
2023/05/28 14:17:56;;;;;;;0.20;0.20;;;;;;;;;;4999253;28;20038;-84
2023/05/28 14:20:22;;;;;;;0.20;0.20;;;;;;;;;;5000597;28;20494;-83
2023/05/28 14:22:48;;;;;;;0.20;0.17;;;;;;;;;;5002678;28;20103;-85
2023/05/28 14:25:14;;;;;;;0.22;0.20;;;;;;;;;;4995933;28;20550;-83
2023/05/28 14:27:40;;;;;;;0.20;0.10;;;;;;;;;;5009728;28;20038;-81
2023/05/28 14:30:10;;;;;;;0.20;0.10;;;;;;;;;;4985758;28;20045;-87
2023/05/28 14:32:36;;;;;;;0.20;0.10;;;;;;;;;;4984636;28;20116;-87
2023/05/28 14:35:02;;;;;;;0.20;0.10;;;;;;;;;;4983722;28;20566;-84
2023/05/28 14:37:28;;;;;;;0.20;0.10;;;;;;;;;;4986158;28;20040;-85
2023/05/28 14:39:54;;;;;;;0.20;0.13;;;;;;;;;;4986243;28;20033;-84
2023/05/28 14:42:20;;;;;;;0.20;0.10;;;;;;;;;;4999568;28;20096;-82
2023/05/28 14:44:46;;;;;;;0.20;0.10;;;;;;;;;;4985928;28;20045;-81
2023/05/28 14:47:12;;;;;;;0.20;0.20;;;;;;;;;;5001626;28;20042;-82
2023/05/28 14:49:38;;;;;;;0.20;0.10;;;;;;;;;;4998320;28;20680;-84
2023/05/28 14:52:23;;;;;;;0.20;0.10;;;;;;;;;;4988185;28;20033;-84
2023/05/28 14:54:50;;;;;;;0.20;0.10;;;;;;;;;;5001856;28;20033;-83